Time;durP1;ratioP1;P1;durP2;ratioP2;P2;SDS_P1;SDS_P2;PMS_P1;PMS_P2;Temp;Humidity;BMP_temperature;BMP_pressure;BME280_temperature;BME280_humidity;BME280_pressure;Samples;Min_cycle;Max_cycle;Signal;HPM_P1;HPM_P2
2023/03/11 00:00:21;;;;;;;0.93;0.93;;;;;;;3.70;68.42;95106.59;5018538;28;20204;-73
2023/03/11 00:02:49;;;;;;;0.70;0.60;;;;;;;3.72;67.99;95120.25;5017946;28;20228;-73
2023/03/11 00:05:17;;;;;;;0.50;0.50;;;;;;;3.71;67.97;95096.97;5017683;28;20209;-74
2023/03/11 00:07:44;;;;;;;0.60;0.60;;;;;;;3.63;68.96;95095.16;5018928;28;20234;-73
2023/03/11 00:10:14;;;;;;;1.00;0.80;;;;;;;3.67;70.44;95096.47;5018394;28;20695;-73
2023/03/11 00:12:40;;;;;;;0.93;0.57;;;;;;;3.56;69.65;95097.78;5018693;28;20267;-72
2023/03/11 00:15:08;;;;;;;0.50;0.50;;;;;;;3.54;68.81;95112.75;5018437;28;20209;-73
2023/03/11 00:17:36;;;;;;;0.50;0.50;;;;;;;3.50;68.19;95122.69;5017830;28;20201;-77
2023/03/11 00:20:04;;;;;;;0.60;0.60;;;;;;;3.43;68.80;95123.50;5018264;28;20215;-74
2023/03/11 00:22:30;;;;;;;0.50;0.50;;;;;;;3.43;69.10;95103.47;5017714;28;20225;-73
2023/03/11 00:24:57;;;;;;;0.60;0.60;;;;;;;3.45;67.95;95116.31;5017176;28;20226;-76
2023/03/11 00:27:23;;;;;;;1.67;0.60;;;;;;;3.56;68.64;95114.22;5018156;28;20231;-78
2023/03/11 00:29:49;;;;;;;0.93;0.70;;;;;;;3.59;69.31;95123.50;5018200;28;20207;-75
2023/03/11 00:32:16;;;;;;;2.00;0.60;;;;;;;3.56;69.96;95118.63;5017807;28;20546;-75
2023/03/11 00:34:44;;;;;;;0.50;0.50;;;;;;;3.48;69.57;95127.22;5017111;28;20245;-76
2023/03/11 00:37:10;;;;;;;1.33;0.73;;;;;;;3.47;69.77;95133.41;5017903;28;20204;-74
2023/03/11 00:39:37;;;;;;;1.23;0.80;;;;;;;3.43;70.59;95139.09;5017988;28;20210;-72
2023/03/11 00:42:04;;;;;;;4.80;0.90;;;;;;;3.37;70.07;95139.75;5017776;28;20220;-74
2023/03/11 00:44:30;;;;;;;0.40;0.40;;;;;;;3.38;69.52;95147.38;5017244;28;20207;-72
2023/03/11 00:46:57;;;;;;;0.50;0.50;;;;;;;3.47;69.55;95137.81;5017445;28;20236;-74
2023/03/11 00:49:23;;;;;;;4.17;0.67;;;;;;;3.45;70.07;95132.78;5017352;28;20298;-72
2023/03/11 00:51:51;;;;;;;0.70;0.70;;;;;;;3.41;70.26;95128.88;5017703;28;20204;-71
2023/03/11 00:54:17;;;;;;;0.83;0.60;;;;;;;3.37;71.04;95144.94;5017442;28;20224;-71
2023/03/11 00:56:44;;;;;;;0.57;0.50;;;;;;;3.43;70.73;95128.69;5017385;28;20680;-71
2023/03/11 00:59:10;;;;;;;1.20;1.07;;;;;;;3.48;71.18;95139.44;5017386;28;20261;-77
2023/03/11 01:01:37;;;;;;;0.83;0.80;;;;;;;3.44;71.74;95136.34;5017436;28;20216;-71
2023/03/11 01:04:03;;;;;;;0.70;0.47;;;;;;;3.24;71.66;95140.19;5016361;28;20226;-72
2023/03/11 01:06:30;;;;;;;0.60;0.60;;;;;;;3.23;71.91;95132.56;5017396;28;20208;-73
2023/03/11 01:08:58;;;;;;;0.80;0.80;;;;;;;3.24;71.77;95136.78;5017742;28;20226;-72
2023/03/11 01:11:24;;;;;;;0.77;0.77;;;;;;;3.21;71.50;95131.91;5017256;28;20204;-71
2023/03/11 01:13:51;;;;;;;1.17;0.83;;;;;;;3.08;70.50;95141.94;5016427;28;20319;-73
2023/03/11 01:16:17;;;;;;;0.40;0.40;;;;;;;3.06;70.51;95147.31;5016543;28;20708;-73
2023/03/11 01:18:44;;;;;;;0.50;0.50;;;;;;;3.04;70.66;95132.81;5016931;28;20219;-72
2023/03/11 01:21:10;;;;;;;0.93;0.80;;;;;;;3.00;71.06;95154.94;5016995;28;20199;-74
2023/03/11 01:23:36;;;;;;;1.70;0.80;;;;;;;2.96;70.50;95129.41;5017206;28;20228;-73
2023/03/11 01:26:04;;;;;;;0.60;0.60;;;;;;;3.01;71.02;95130.56;5016667;28;20212;-72
2023/03/11 01:28:31;;;;;;;0.60;0.60;;;;;;;2.87;69.57;95157.16;5016483;28;20221;-74
2023/03/11 01:30:57;;;;;;;0.57;0.53;;;;;;;2.88;70.31;95147.56;5016893;28;20213;-74
2023/03/11 01:33:24;;;;;;;0.70;0.70;;;;;;;2.92;69.43;95149.72;5016790;28;20228;-75
2023/03/11 01:35:50;;;;;;;0.60;0.60;;;;;;;2.87;69.70;95146.75;5017054;28;20207;-73
2023/03/11 01:38:17;;;;;;;0.50;0.50;;;;;;;2.79;69.31;95141.53;5017151;28;20203;-72
2023/03/11 01:40:45;;;;;;;0.40;0.40;;;;;;;2.92;69.37;95148.91;5016507;28;20214;-75
2023/03/11 01:43:40;;;;;;;0.73;0.63;;;;;;;3.06;69.53;95129.09;5017011;28;20221;-74
2023/03/11 01:46:11;;;;;;;0.50;0.50;;;;;;;3.00;69.66;95130.72;5016443;28;20293;-75
2023/03/11 01:48:38;;;;;;;1.03;0.73;;;;;;;2.96;70.54;95148.41;5016107;28;20222;-76
2023/03/11 01:51:05;;;;;;;0.67;0.60;;;;;;;2.89;70.97;95134.44;5016896;28;20237;-73
2023/03/11 01:53:32;;;;;;;0.77;0.60;;;;;;;2.87;70.56;95156.38;5016275;28;20219;-75
2023/03/11 01:55:59;;;;;;;1.27;1.00;;;;;;;2.89;70.58;95144.84;5015533;28;20705;-72
2023/03/11 01:58:30;;;;;;;0.37;0.37;;;;;;;2.85;70.89;95133.13;5016949;28;20290;-71
2023/03/11 02:01:00;;;;;;;0.50;0.50;;;;;;;2.88;71.29;95147.56;5016847;28;21028;-71
2023/03/11 02:03:30;;;;;;;0.40;0.40;;;;;;;2.81;70.63;95149.97;5016443;28;21196;-72
2023/03/11 02:05:59;;;;;;;0.50;0.50;;;;;;;2.75;71.05;95148.03;5016351;28;20622;-72
2023/03/11 02:08:26;;;;;;;0.30;0.30;;;;;;;2.79;71.34;95141.53;5016192;28;20220;-75
2023/03/11 02:10:54;;;;;;;3.20;0.70;;;;;;;2.82;71.71;95159.41;5016337;28;20202;-75
2023/03/11 02:13:20;;;;;;;0.87;0.70;;;;;;;2.82;71.80;95167.22;5016872;28;20228;-72
2023/03/11 02:15:47;;;;;;;0.40;0.40;;;;;;;2.79;72.12;95164.09;5016252;28;20233;-71
2023/03/11 02:18:17;;;;;;;0.77;0.60;;;;;;;2.80;71.83;95139.72;5016523;28;20207;-74
2023/03/11 02:20:50;;;;;;;0.73;0.70;;;;;;;2.84;72.01;95157.50;5016729;28;20285;-75
2023/03/11 02:23:20;;;;;;;0.70;0.70;;;;;;;2.82;72.09;95163.81;5016690;28;20233;-73
2023/03/11 02:25:54;;;;;;;1.77;0.70;;;;;;;2.86;71.72;95124.31;5015259;28;20223;-72
2023/03/11 02:28:22;;;;;;;0.73;0.60;;;;;;;2.82;72.05;95127.41;5019731;28;21023;-74
2023/03/11 02:30:50;;;;;;;0.63;0.63;;;;;;;2.84;72.85;95131.47;5020580;28;20211;-74
2023/03/11 02:33:19;;;;;;;0.50;0.50;;;;;;;2.90;72.77;95137.81;5020018;28;20227;-71
2023/03/11 02:35:45;;;;;;;0.90;0.70;;;;;;;2.93;72.61;95156.53;5020006;28;20205;-74
2023/03/11 02:38:12;;;;;;;0.63;0.53;;;;;;;2.84;72.14;95159.25;5020331;28;20194;-72
2023/03/11 02:40:48;;;;;;;0.67;0.63;;;;;;;3.04;72.55;95149.28;5020156;28;20717;-75
2023/03/11 02:43:19;;;;;;;0.50;0.50;;;;;;;2.95;72.52;95144.19;5020334;28;20224;-71
2023/03/11 02:45:48;;;;;;;0.73;0.67;;;;;;;3.01;73.09;95159.97;5020654;28;20207;-74
2023/03/11 02:48:16;;;;;;;0.90;0.90;;;;;;;3.07;72.92;95163.75;5020933;28;20221;-72
2023/03/11 02:50:44;;;;;;;0.83;0.80;;;;;;;3.04;73.14;95161.44;5020243;28;20208;-75
2023/03/11 02:53:10;;;;;;;0.50;0.50;;;;;;;2.97;72.88;95149.25;5019855;28;20232;-73
2023/03/11 02:55:37;;;;;;;1.70;0.80;;;;;;;2.94;73.27;95168.59;5019958;28;20207;-76
2023/03/11 02:58:03;;;;;;;2.50;0.67;;;;;;;2.87;73.72;95177.97;5019427;28;20210;-73
2023/03/11 03:00:31;;;;;;;0.60;0.60;;;;;;;2.95;73.67;95174.59;5019953;28;20203;-75
2023/03/11 03:02:58;;;;;;;0.40;0.40;;;;;;;3.04;73.73;95183.09;5019823;28;21001;-74
2023/03/11 03:05:25;;;;;;;1.30;0.53;;;;;;;2.89;74.12;95177.81;5019060;28;20221;-72
2023/03/11 03:07:52;;;;;;;0.80;0.77;;;;;;;2.89;74.37;95168.25;5019641;28;20230;-72
2023/03/11 03:10:21;;;;;;;0.70;0.70;;;;;;;2.87;75.40;95185.78;5019859;28;20610;-74
2023/03/11 03:12:47;;;;;;;0.87;0.70;;;;;;;2.92;74.78;95183.53;5019406;28;20296;-72
2023/03/11 03:15:14;;;;;;;0.57;0.57;;;;;;;2.89;75.79;95191.66;5019120;28;20953;-76
2023/03/11 03:17:41;;;;;;;4.17;1.40;;;;;;;2.84;76.26;95199.09;5019784;28;20210;-75
2023/03/11 03:20:12;;;;;;;1.20;1.00;;;;;;;2.78;75.61;95196.31;5019442;28;20207;-73
2023/03/11 03:22:40;;;;;;;1.13;0.63;;;;;;;2.61;72.77;95202.38;5019763;28;20223;-73
2023/03/11 03:25:08;;;;;;;0.70;0.70;;;;;;;2.51;73.21;95212.09;5019015;28;21027;-73
2023/03/11 03:27:34;;;;;;;0.70;0.70;;;;;;;2.46;71.89;95204.75;5019264;28;20206;-76
2023/03/11 03:30:01;;;;;;;0.67;0.60;;;;;;;2.31;70.24;95199.47;5019449;28;20677;-76
2023/03/11 03:32:28;;;;;;;0.70;0.70;;;;;;;2.23;71.20;95205.41;5019404;28;20789;-75
2023/03/11 03:34:57;;;;;;;0.80;0.80;;;;;;;2.14;71.65;95195.94;5018625;28;20629;-77
2023/03/11 03:37:26;;;;;;;0.40;0.40;;;;;;;2.29;71.95;95219.56;5019161;28;20203;-76
2023/03/11 03:39:53;;;;;;;0.60;0.60;;;;;;;2.04;71.80;95217.78;5018368;28;20280;-73
2023/03/11 03:42:20;;;;;;;4.03;1.10;;;;;;;2.03;71.73;95229.13;5019227;28;20221;-73
2023/03/11 03:44:46;;;;;;;0.60;0.60;;;;;;;1.92;71.85;95232.78;5018636;28;20216;-73
2023/03/11 03:47:13;;;;;;;0.83;0.70;;;;;;;1.94;72.22;95219.63;5019557;28;20209;-76
2023/03/11 03:49:39;;;;;;;2.40;0.77;;;;;;;2.00;72.61;95211.25;5018984;28;21399;-76
2023/03/11 03:52:06;;;;;;;1.83;0.73;;;;;;;2.01;73.05;95218.88;5016366;28;20198;-76
2023/03/11 03:54:34;;;;;;;1.20;1.10;;;;;;;1.96;73.11;95212.47;5018686;28;20209;-77
2023/03/11 03:57:00;;;;;;;0.80;0.80;;;;;;;1.80;73.43;95212.38;5019203;28;20217;-74
2023/03/11 03:59:27;;;;;;;0.63;0.60;;;;;;;1.79;72.87;95218.50;5018810;28;20213;-74
2023/03/11 04:01:53;;;;;;;0.73;0.60;;;;;;;1.74;73.49;95230.31;5018343;28;20544;-75
2023/03/11 04:04:20;;;;;;;0.73;0.50;;;;;;;1.64;74.00;95229.56;5018678;28;20225;-76
2023/03/11 04:06:46;;;;;;;0.87;0.87;;;;;;;1.65;75.22;95221.63;5018485;28;20206;-78
2023/03/11 04:09:13;;;;;;;1.43;1.10;;;;;;;1.63;75.83;95223.56;5018336;28;21063;-78
2023/03/11 04:11:41;;;;;;;0.87;0.87;;;;;;;1.61;76.38;95233.28;5018714;28;20686;-75
2023/03/11 04:14:08;;;;;;;4.70;0.77;;;;;;;1.44;76.14;95221.13;5018437;28;20221;-75
2023/03/11 04:16:34;;;;;;;1.30;0.90;;;;;;;1.38;76.53;95234.66;5018190;28;20225;-75
2023/03/11 04:19:01;;;;;;;0.63;0.63;;;;;;;1.47;75.40;95244.16;5018476;28;20202;-76
2023/03/11 04:21:27;;;;;;;1.53;0.80;;;;;;;1.46;76.23;95252.91;5018920;28;20198;-76
2023/03/11 04:23:53;;;;;;;1.03;0.60;;;;;;;1.39;75.18;95254.47;5017544;28;20233;-73
2023/03/11 04:26:20;;;;;;;0.80;0.80;;;;;;;1.49;74.88;95263.03;5018455;28;20216;-77
2023/03/11 04:28:48;;;;;;;5.53;0.70;;;;;;;1.51;74.92;95265.47;5018323;28;20222;-78
2023/03/11 04:31:14;;;;;;;0.83;0.57;;;;;;;1.47;74.88;95274.50;5018229;28;20198;-75
2023/03/11 04:33:41;;;;;;;0.87;0.80;;;;;;;1.33;75.54;95275.00;5017660;28;20225;-76
2023/03/11 04:36:09;;;;;;;2.30;1.07;;;;;;;1.30;76.32;95277.88;5018053;28;20892;-78
2023/03/11 04:38:36;;;;;;;1.13;1.03;;;;;;;1.37;75.21;95279.72;5018327;28;20205;-72
2023/03/11 04:41:03;;;;;;;2.73;0.87;;;;;;;1.26;75.69;95287.72;5017959;28;20209;-76
2023/03/11 04:43:30;;;;;;;2.03;1.53;;;;;;;1.29;75.20;95274.47;5017527;28;21038;-77
2023/03/11 04:45:58;;;;;;;0.70;0.70;;;;;;;1.30;75.39;95273.50;5017440;28;20387;-77
2023/03/11 04:48:26;;;;;;;5.20;1.37;;;;;;;1.14;76.20;95276.88;5017488;28;20235;-75
2023/03/11 04:50:54;;;;;;;0.93;0.70;;;;;;;1.12;75.77;95273.59;5018071;28;20202;-76
2023/03/11 04:53:20;;;;;;;1.30;0.87;;;;;;;1.07;74.69;95281.00;5017968;28;20309;-74
2023/03/11 04:55:47;;;;;;;0.50;0.50;;;;;;;1.19;75.11;95285.03;5016725;28;20209;-77
2023/03/11 04:58:14;;;;;;;1.53;0.80;;;;;;;1.16;74.86;95282.72;5017543;28;20713;-73
2023/03/11 05:00:40;;;;;;;0.57;0.53;;;;;;;1.24;75.33;95289.63;5017770;28;20205;-73
2023/03/11 05:03:08;;;;;;;2.90;0.80;;;;;;;1.22;75.87;95290.75;5016898;28;20229;-74
2023/03/11 05:05:35;;;;;;;0.70;0.70;;;;;;;1.05;75.82;95290.72;5017047;28;20213;-77
2023/03/11 05:08:01;;;;;;;0.83;0.80;;;;;;;1.07;75.45;95286.19;5017336;28;20244;-75
2023/03/11 05:10:28;;;;;;;1.27;0.53;;;;;;;1.08;74.76;95290.41;5018388;28;20206;-73
2023/03/11 05:12:54;;;;;;;3.70;0.80;;;;;;;1.14;74.77;95297.63;5017737;28;20230;-74
2023/03/11 05:15:21;;;;;;;0.50;0.50;;;;;;;0.98;74.95;95302.59;5016858;28;20209;-73
2023/03/11 05:17:47;;;;;;;2.73;1.03;;;;;;;0.92;75.10;95308.38;5017538;28;20209;-76
2023/03/11 05:20:15;;;;;;;0.57;0.57;;;;;;;0.94;74.46;95296.91;5018784;28;20198;-74
2023/03/11 05:22:42;;;;;;;7.07;0.70;;;;;;;0.86;74.58;95303.75;5017119;28;20224;-76
2023/03/11 05:25:09;;;;;;;1.63;0.93;;;;;;;0.87;75.52;95302.78;5016233;28;20205;-73
2023/03/11 05:27:36;;;;;;;2.73;0.87;;;;;;;0.81;75.60;95295.56;5017142;28;20729;-73
2023/03/11 05:30:02;;;;;;;0.53;0.53;;;;;;;0.76;74.97;95302.94;5016704;28;20229;-74
2023/03/11 05:32:29;;;;;;;0.60;0.53;;;;;;;0.73;75.38;95309.22;5017051;28;20227;-73
2023/03/11 05:34:55;;;;;;;1.67;0.77;;;;;;;0.87;75.07;95315.75;5016505;28;20216;-73
2023/03/11 05:37:23;;;;;;;0.60;0.60;;;;;;;0.97;74.08;95330.31;5017293;28;20202;-74
2023/03/11 05:39:51;;;;;;;0.70;0.70;;;;;;;1.05;73.75;95339.97;5016986;28;20206;-73
2023/03/11 05:42:18;;;;;;;0.93;0.70;;;;;;;0.94;74.33;95332.38;5016988;28;20205;-73
2023/03/11 05:44:44;;;;;;;1.33;0.90;;;;;;;1.03;74.35;95331.50;5015976;28;20221;-74
2023/03/11 05:47:11;;;;;;;1.67;1.27;;;;;;;1.04;74.15;95330.56;5016666;28;20205;-76
2023/03/11 05:49:37;;;;;;;1.20;0.90;;;;;;;0.93;73.46;95338.50;5017045;28;20225;-78
2023/03/11 05:52:04;;;;;;;0.60;0.60;;;;;;;1.04;73.95;95338.34;5017028;28;20202;-73
2023/03/11 05:54:32;;;;;;;0.40;0.40;;;;;;;0.96;74.37;95341.63;5015980;28;20210;-75
2023/03/11 05:56:59;;;;;;;0.60;0.60;;;;;;;0.90;73.51;95344.78;5016217;28;20206;-73
2023/03/11 05:59:25;;;;;;;0.60;0.60;;;;;;;0.98;73.66;95344.94;5016976;28;20568;-73
2023/03/11 06:01:52;;;;;;;0.60;0.50;;;;;;;0.88;73.49;95338.94;5017111;28;20202;-76
2023/03/11 06:04:18;;;;;;;1.17;1.03;;;;;;;0.89;74.04;95338.00;5020521;28;20222;-73
2023/03/11 06:06:45;;;;;;;2.40;1.33;;;;;;;1.02;73.80;95341.09;5021057;28;20217;-73
2023/03/11 06:09:13;;;;;;;4.93;1.17;;;;;;;1.07;73.91;95344.06;5020404;28;20232;-75
2023/03/11 06:11:41;;;;;;;2.30;1.20;;;;;;;1.06;74.39;95332.06;5020485;28;20198;-76
2023/03/11 06:14:11;;;;;;;2.13;0.50;;;;;;;1.04;74.64;95335.75;5020607;28;20228;-74
2023/03/11 06:16:38;;;;;;;3.20;1.40;;;;;;;1.21;73.97;95339.22;5020670;28;20271;-74
2023/03/11 06:19:04;;;;;;;2.57;1.30;;;;;;;1.14;72.68;95336.53;5020315;28;20202;-72
2023/03/11 06:21:31;;;;;;;5.43;1.30;;;;;;;1.27;73.41;95335.25;5021040;28;20585;-74
2023/03/11 06:23:58;;;;;;;5.43;2.07;;;;;;;1.37;73.63;95336.03;5019940;28;20241;-75
2023/03/11 06:26:24;;;;;;;2.63;1.47;;;;;;;1.37;73.50;95347.22;5020318;28;20210;-75
2023/03/11 06:28:53;;;;;;;1.50;1.40;;;;;;;1.44;71.96;95343.09;5019808;28;21121;-78
2023/03/11 06:31:21;;;;;;;5.07;1.43;;;;;;;1.44;72.36;95340.50;5020519;28;20208;-75
2023/03/11 06:33:48;;;;;;;4.43;2.33;;;;;;;1.52;72.10;95345.78;5018796;28;20213;-76
2023/03/11 06:36:17;;;;;;;4.80;1.73;;;;;;;1.61;72.55;95350.09;5020434;28;20781;-76
2023/03/11 06:38:45;;;;;;;5.03;1.13;;;;;;;1.41;72.31;95358.97;5019863;28;20202;-78
2023/03/11 06:41:12;;;;;;;0.50;0.40;;;;;;;1.32;70.81;95364.16;5019345;28;20206;-75
2023/03/11 06:43:39;;;;;;;0.63;0.57;;;;;;;1.40;71.60;95359.06;5019926;28;20225;-78
2023/03/11 06:46:11;;;;;;;0.50;0.47;;;;;;;1.59;71.24;95361.59;5019487;28;20210;-76
2023/03/11 06:48:37;;;;;;;0.63;0.63;;;;;;;1.46;71.27;95364.50;5021318;28;20205;-75
2023/03/11 06:51:04;;;;;;;0.97;0.90;;;;;;;1.30;72.21;95364.31;5022343;28;20209;-71
2023/03/11 06:53:31;;;;;;;0.77;0.63;;;;;;;1.25;72.74;95376.09;5023077;28;20237;-73
2023/03/11 06:55:59;;;;;;;0.93;0.60;;;;;;;1.22;72.78;95384.97;5021437;28;20682;-74
2023/03/11 06:58:26;;;;;;;1.33;0.50;;;;;;;1.17;70.02;95378.56;5022264;28;20297;-74
2023/03/11 07:00:52;;;;;;;1.83;0.53;;;;;;;1.22;69.47;95389.31;5021823;28;20600;-72
2023/03/11 07:03:20;;;;;;;1.23;0.63;;;;;;;1.32;69.91;95384.94;5022277;28;20226;-73
2023/03/11 07:05:50;;;;;;;0.73;0.60;;;;;;;1.49;68.32;95387.59;5020516;28;20201;-73
2023/03/11 07:08:17;;;;;;;0.50;0.50;;;;;;;1.41;68.42;95392.69;5019755;28;20205;-73
2023/03/11 07:10:43;;;;;;;1.57;0.90;;;;;;;1.77;68.99;95402.25;5020694;28;20418;-74
2023/03/11 07:13:10;;;;;;;0.73;0.70;;;;;;;1.79;68.30;95408.09;5020556;28;20229;-73
2023/03/11 07:15:36;;;;;;;8.30;1.77;;;;;;;1.70;69.81;95406.34;5019582;28;20208;-73
2023/03/11 07:18:03;;;;;;;2.23;0.77;;;;;;;1.87;70.52;95416.81;5020359;28;21092;-73
2023/03/11 07:20:30;;;;;;;4.13;1.47;;;;;;;1.89;69.64;95421.84;5021748;28;20202;-72
2023/03/11 07:22:57;;;;;;;0.50;0.50;;;;;;;1.82;69.59;95416.41;5020533;28;20218;-74
2023/03/11 07:25:23;;;;;;;0.90;0.70;;;;;;;1.83;70.46;95419.81;5018555;28;20213;-72
2023/03/11 07:27:50;;;;;;;6.13;0.90;;;;;;;1.97;69.14;95420.16;5020077;28;20780;-72
2023/03/11 07:30:17;;;;;;;3.47;1.23;;;;;;;2.19;70.56;95424.13;5020803;28;20233;-74
2023/03/11 07:32:43;;;;;;;0.80;0.80;;;;;;;1.84;70.00;95434.44;5019778;28;21096;-74
2023/03/11 07:35:10;;;;;;;1.00;0.73;;;;;;;1.82;71.18;95432.00;5021201;28;20203;-74
2023/03/11 07:37:38;;;;;;;0.30;0.30;;;;;;;1.85;71.71;95429.09;5022072;28;20728;-74
2023/03/11 07:40:05;;;;;;;1.20;0.83;;;;;;;1.88;71.59;95436.63;5020782;28;20206;-71
2023/03/11 07:42:32;;;;;;;0.80;0.67;;;;;;;2.00;68.87;95424.25;5020886;28;20229;-74
2023/03/11 07:44:59;;;;;;;0.70;0.70;;;;;;;1.84;67.83;95426.66;5017799;28;20320;-74
2023/03/11 07:47:25;;;;;;;0.60;0.60;;;;;;;2.12;68.47;95429.09;5019395;28;20208;-74
2023/03/11 07:49:52;;;;;;;7.73;0.80;;;;;;;2.14;67.86;95432.38;5020538;28;20225;-75
2023/03/11 07:52:18;;;;;;;1.03;0.53;;;;;;;1.99;67.70;95427.81;5021239;28;20203;-72
2023/03/11 07:54:46;;;;;;;0.30;0.30;;;;;;;2.04;68.09;95428.19;5018461;28;20210;-71
2023/03/11 07:57:15;;;;;;;2.53;1.50;;;;;;;2.17;68.83;95445.06;5021254;28;20203;-73
2023/03/11 07:59:42;;;;;;;3.57;1.53;;;;;;;2.16;68.95;95440.00;5022824;28;20213;-75
2023/03/11 08:02:09;;;;;;;2.60;0.53;;;;;;;2.16;69.11;95450.41;5021700;28;20228;-73
2023/03/11 08:04:36;;;;;;;1.07;0.90;;;;;;;2.27;69.01;95447.63;5019539;28;20221;-72
2023/03/11 08:07:02;;;;;;;0.50;0.50;;;;;;;2.04;67.17;95457.59;5022592;28;20561;-73
2023/03/11 08:09:29;;;;;;;0.80;0.70;;;;;;;1.97;67.78;95445.31;5022622;28;20231;-71
2023/03/11 08:11:57;;;;;;;5.40;0.83;;;;;;;2.13;69.35;95448.91;5021270;28;20207;-75
2023/03/11 08:14:23;;;;;;;3.93;0.90;;;;;;;2.21;69.54;95443.81;5022274;28;20226;-71
2023/03/11 08:16:50;;;;;;;2.37;0.73;;;;;;;2.25;69.96;95444.34;5022677;28;20209;-75
2023/03/11 08:19:16;;;;;;;9.93;1.33;;;;;;;2.30;69.09;95457.72;5020442;28;20199;-71
2023/03/11 08:21:43;;;;;;;0.60;0.60;;;;;;;2.01;69.50;95459.63;5018994;28;20204;-73
2023/03/11 08:24:12;;;;;;;2.93;0.77;;;;;;;2.27;69.14;95468.41;5017806;28;20234;-74
2023/03/11 08:26:39;;;;;;;4.63;0.80;;;;;;;2.31;68.86;95469.75;5016120;28;20210;-74
2023/03/11 08:29:07;;;;;;;1.50;0.83;;;;;;;2.39;67.43;95468.03;5017184;28;20686;-75
2023/03/11 08:31:35;;;;;;;0.90;0.90;;;;;;;2.58;68.01;95467.91;5017238;28;20685;-75
2023/03/11 08:34:04;;;;;;;1.50;0.80;;;;;;;2.82;69.29;95455.94;5016018;28;21026;-75
2023/03/11 08:36:31;;;;;;;5.67;0.83;;;;;;;2.77;66.52;95468.59;5017348;28;20561;-75
2023/03/11 08:38:58;;;;;;;0.80;0.80;;;;;;;2.92;66.96;95471.50;5017828;28;20198;-74
2023/03/11 08:41:25;;;;;;;2.37;0.87;;;;;;;2.93;64.69;95475.72;5017484;28;20560;-76
2023/03/11 08:43:52;;;;;;;0.53;0.50;;;;;;;2.93;65.29;95471.34;5015912;28;20255;-74
2023/03/11 08:46:24;;;;;;;0.40;0.40;;;;;;;3.20;64.95;95471.25;5017204;28;20737;-71
2023/03/11 08:48:51;;;;;;;0.40;0.40;;;;;;;3.34;66.06;95470.69;5018603;28;20694;-75
2023/03/11 08:51:18;;;;;;;0.93;0.60;;;;;;;3.09;64.91;95485.31;5019864;28;20230;-74
2023/03/11 08:53:45;;;;;;;1.93;0.60;;;;;;;2.66;65.76;95483.59;5018741;28;20697;-74
2023/03/11 08:56:12;;;;;;;2.73;0.90;;;;;;;3.04;67.56;95486.72;5020363;28;20220;-71
2023/03/11 08:58:38;;;;;;;2.53;0.83;;;;;;;3.10;66.40;95486.94;5021750;28;20205;-74
2023/03/11 09:01:05;;;;;;;3.17;0.50;;;;;;;3.08;65.54;95482.84;5018953;28;20205;-74
2023/03/11 09:03:34;;;;;;;0.40;0.40;;;;;;;3.23;66.47;95481.34;5016683;28;20589;-72
2023/03/11 09:06:01;;;;;;;3.70;1.23;;;;;;;3.27;67.33;95482.66;5019160;28;20437;-74
2023/03/11 09:08:28;;;;;;;1.43;0.90;;;;;;;3.25;68.16;95482.03;5022957;28;20239;-74
2023/03/11 09:10:55;;;;;;;1.37;0.63;;;;;;;2.94;66.54;95498.16;5022036;28;20236;-74
2023/03/11 09:13:21;;;;;;;7.13;0.83;;;;;;;2.97;65.57;95492.69;5023835;28;20235;-74
2023/03/11 09:15:48;;;;;;;0.40;0.40;;;;;;;2.98;65.88;95487.31;5028459;28;20224;-74
2023/03/11 09:18:16;;;;;;;5.20;0.70;;;;;;;2.98;66.93;95492.53;5027631;28;20208;-75
2023/03/11 09:20:45;;;;;;;0.67;0.60;;;;;;;3.14;67.23;95487.44;5025231;28;20198;-72
2023/03/11 09:23:14;;;;;;;1.00;0.97;;;;;;;3.46;66.66;95490.31;5016831;28;20228;-74
2023/03/11 09:25:40;;;;;;;1.07;0.80;;;;;;;3.32;68.19;95498.66;5016459;28;20220;-74
2023/03/11 09:28:07;;;;;;;3.13;1.00;;;;;;;2.89;66.71;95493.44;5016518;28;20201;-73
2023/03/11 09:30:34;;;;;;;1.47;0.77;;;;;;;2.86;65.99;95508.50;5017044;28;20222;-76
2023/03/11 09:33:01;;;;;;;3.13;0.73;;;;;;;2.83;66.33;95514.03;5016395;28;20223;-79
2023/03/11 09:35:27;;;;;;;1.23;0.90;;;;;;;3.03;67.04;95504.13;5015056;28;20208;-76
2023/03/11 09:37:55;;;;;;;3.80;1.07;;;;;;;3.00;67.07;95511.41;5015480;28;20708;-77
2023/03/11 09:40:25;;;;;;;1.10;0.67;;;;;;;3.17;66.26;95519.22;5015979;28;20196;-77
2023/03/11 09:43:04;;;;;;;1.43;1.27;;;;;;;3.52;65.36;95518.34;5015959;28;20228;-77
2023/03/11 09:45:36;;;;;;;1.20;1.00;;;;;;;3.83;62.06;95518.56;5015620;28;20209;-73
2023/03/11 09:48:12;;;;;;;0.60;0.50;;;;;;;3.70;59.11;95519.94;5016786;28;20673;-74
2023/03/11 09:50:47;;;;;;;0.60;0.50;;;;;;;3.96;58.18;95518.13;5015865;28;20208;-75
2023/03/11 09:53:32;;;;;;;0.50;0.50;;;;;;;4.10;59.73;95526.22;5016166;28;20225;-74
2023/03/11 09:56:00;;;;;;;0.87;0.70;;;;;;;4.52;60.37;95527.03;5014486;28;20235;-74
2023/03/11 09:58:37;;;;;;;1.07;0.60;;;;;;;4.65;61.84;95527.41;5015905;28;20198;-75
2023/03/11 10:01:14;;;;;;;0.93;0.67;;;;;;;4.82;60.39;95518.66;5016736;28;20574;-76
2023/03/11 10:03:41;;;;;;;2.83;1.10;;;;;;;4.26;56.61;95526.28;5015829;28;20225;-73
2023/03/11 10:06:15;;;;;;;3.67;0.83;;;;;;;3.95;58.83;95526.94;5014770;28;20202;-74
2023/03/11 10:08:47;;;;;;;2.20;1.27;;;;;;;3.81;58.50;95536.13;5016150;28;20220;-78
2023/03/11 10:11:43;;;;;;;2.17;0.70;;;;;;;3.98;59.81;95539.66;5015785;28;20209;-73
2023/03/11 10:14:23;;;;;;;0.57;0.57;;;;;;;3.87;60.41;95529.47;5014158;28;20247;-73
2023/03/11 10:16:57;;;;;;;0.87;0.70;;;;;;;4.20;59.82;95531.28;5016013;28;20212;-78
2023/03/11 10:19:36;;;;;;;1.07;0.60;;;;;;;4.15;58.03;95534.38;5016345;28;21320;-74
2023/03/11 10:22:12;;;;;;;1.40;0.63;;;;;;;4.18;55.66;95534.06;5015865;28;20201;-75
2023/03/11 10:24:53;;;;;;;0.57;0.57;;;;;;;4.23;55.15;95531.81;5015656;28;20210;-76
2023/03/11 10:27:23;;;;;;;2.00;0.97;;;;;;;4.00;56.88;95543.75;5016292;28;20217;-75
2023/03/11 10:29:56;;;;;;;2.17;0.77;;;;;;;4.13;57.99;95540.72;5014819;28;20220;-75
2023/03/11 10:32:30;;;;;;;1.33;0.63;;;;;;;4.06;60.22;95540.53;5015562;28;20222;-75
2023/03/11 10:35:04;;;;;;;1.43;0.97;;;;;;;4.19;58.90;95540.09;5014962;28;20212;-74
2023/03/11 10:37:37;;;;;;;1.43;1.00;;;;;;;4.05;60.56;95538.88;5015025;28;20226;-73
2023/03/11 10:40:19;;;;;;;1.30;1.03;;;;;;;4.07;58.71;95544.75;5014708;28;20201;-74
2023/03/11 10:42:46;;;;;;;3.47;0.70;;;;;;;4.17;59.33;95548.06;5015766;28;20217;-74
2023/03/11 10:45:14;;;;;;;3.40;1.53;;;;;;;4.07;58.79;95542.13;5013335;28;20213;-78
2023/03/11 10:47:41;;;;;;;7.30;1.30;;;;;;;4.23;58.59;95537.03;5016357;28;20202;-73
2023/03/11 10:50:13;;;;;;;1.13;1.00;;;;;;;4.33;58.69;95542.94;5020168;28;20225;-76
2023/03/11 10:52:46;;;;;;;1.20;1.10;;;;;;;4.33;60.25;95542.94;5019884;28;20225;-77
2023/03/11 10:55:18;;;;;;;6.43;1.27;;;;;;;4.52;57.20;95537.47;5018540;28;20219;-77
2023/03/11 10:57:46;;;;;;;2.33;0.97;;;;;;;4.44;57.23;95542.66;5020622;28;20304;-74
2023/03/11 11:00:30;;;;;;;1.17;0.93;;;;;;;4.84;57.98;95543.63;5019203;28;20212;-73
2023/03/11 11:02:58;;;;;;;2.13;0.90;;;;;;;4.73;57.84;95540.50;5019293;28;20260;-77
2023/03/11 11:05:29;;;;;;;2.07;1.30;;;;;;;4.88;56.89;95530.06;5019007;28;20279;-74
2023/03/11 11:08:04;;;;;;;3.63;1.00;;;;;;;5.11;57.28;95523.28;5020364;28;20221;-76
2023/03/11 11:10:33;;;;;;;2.17;1.00;;;;;;;5.01;56.76;95504.31;5019622;28;20247;-73
2023/03/11 11:13:02;;;;;;;1.90;1.17;;;;;;;5.37;56.27;95517.91;5017761;28;20249;-77
2023/03/11 11:15:30;;;;;;;1.83;1.10;;;;;;;5.35;55.81;95520.69;5018690;28;20283;-74
2023/03/11 11:17:59;;;;;;;2.10;1.13;;;;;;;5.00;55.54;95518.38;5018242;28;20202;-73
2023/03/11 11:20:28;;;;;;;1.77;1.00;;;;;;;4.58;56.16;95522.03;5018766;28;20201;-73
2023/03/11 11:22:57;;;;;;;1.40;1.10;;;;;;;4.82;57.38;95520.28;5019023;28;20221;-73
2023/03/11 11:25:26;;;;;;;5.27;1.20;;;;;;;4.83;56.90;95524.50;5018247;28;20217;-73
2023/03/11 11:27:56;;;;;;;3.17;1.10;;;;;;;5.08;55.61;95525.41;5019413;28;20217;-73
2023/03/11 11:30:23;;;;;;;1.07;0.80;;;;;;;5.08;55.26;95520.19;5019528;28;20599;-72
2023/03/11 11:32:52;;;;;;;2.57;1.00;;;;;;;5.61;55.28;95516.09;5018977;28;20232;-73
2023/03/11 11:35:20;;;;;;;1.10;1.00;;;;;;;5.60;56.64;95510.06;5018088;28;20319;-73
2023/03/11 11:37:48;;;;;;;3.40;1.30;;;;;;;5.49;58.65;95513.00;5019027;28;20774;-73
2023/03/11 11:40:23;;;;;;;3.83;1.07;;;;;;;5.57;57.53;95512.19;5019070;28;20208;-73
2023/03/11 11:42:54;;;;;;;1.10;1.00;;;;;;;5.28;57.93;95518.88;5018454;28;20343;-73
2023/03/11 11:45:30;;;;;;;1.23;1.13;;;;;;;5.49;57.36;95514.81;5018271;28;20206;-72